createdAt,value
2018-04-22T00:00:42.910Z,7.80
2018-04-22T00:01:44.234Z,7.17
2018-04-22T00:02:45.956Z,7.00
2018-04-22T00:03:47.407Z,6.60
2018-04-22T00:04:49.117Z,6.77
2018-04-22T00:05:50.465Z,8.03
2018-04-22T00:06:52.186Z,7.57
2018-04-22T00:07:54.276Z,6.97
2018-04-22T00:08:55.994Z,6.73
2018-04-22T00:09:58.047Z,6.57
2018-04-22T00:10:59.394Z,7.70
2018-04-22T00:12:01.092Z,6.90
2018-04-22T00:13:02.450Z,7.13
2018-04-22T00:14:05.277Z,7.37
2018-04-22T00:15:07.347Z,6.47
2018-04-22T00:16:08.666Z,6.50
2018-04-22T00:17:09.982Z,7.60
2018-04-22T00:18:12.102Z,7.60
2018-04-22T00:19:13.431Z,7.57
2018-04-22T00:20:15.522Z,7.47
2018-04-22T00:21:17.233Z,7.40
2018-04-22T00:22:18.546Z,6.40
2018-04-22T00:23:20.255Z,7.17
2018-04-22T00:24:22.341Z,7.33
2018-04-22T00:25:25.383Z,7.10
2018-04-22T00:26:27.434Z,7.27
2018-04-22T00:27:28.761Z,7.10
2018-04-22T00:28:30.434Z,7.27
2018-04-22T00:29:32.133Z,6.60
2018-04-22T00:30:33.458Z,7.47
2018-04-22T00:31:34.810Z,7.00
2018-04-22T00:32:36.139Z,6.90
2018-04-22T00:33:37.879Z,7.13
2018-04-22T00:34:40.303Z,6.90
2018-04-22T00:35:42.379Z,6.77
2018-04-22T00:36:44.074Z,6.90
2018-04-22T00:37:45.402Z,6.60
2018-04-22T00:38:47.514Z,6.70
2018-04-22T00:39:49.581Z,6.17
2018-04-22T00:40:51.287Z,6.70
2018-04-22T00:41:52.614Z,7.43
2018-04-22T00:42:54.325Z,7.50
2018-04-22T00:43:56.419Z,7.20
2018-04-22T00:44:57.746Z,6.70
2018-04-22T00:45:59.078Z,7.03
2018-04-22T00:47:00.795Z,6.93
2018-04-22T00:48:02.114Z,7.43
2018-04-22T00:49:04.465Z,6.77
2018-04-22T00:50:06.176Z,6.63
2018-04-22T00:51:07.896Z,6.73
2018-04-22T00:52:09.228Z,7.23
2018-04-22T00:53:11.345Z,6.97
2018-04-22T00:54:19.700Z,7.00
2018-04-22T00:55:21.393Z,6.70
2018-04-22T00:56:22.729Z,7.37
2018-04-22T00:57:24.056Z,6.87
2018-04-22T00:58:25.373Z,7.23
2018-04-22T00:59:27.458Z,7.57
2018-04-22T01:00:28.825Z,7.30
2018-04-22T01:01:30.887Z,7.03
2018-04-22T01:02:32.981Z,6.83
2018-04-22T01:03:34.308Z,7.00
2018-04-22T01:04:35.913Z,6.70
2018-04-22T01:05:38.015Z,7.20
2018-04-22T01:06:40.475Z,6.87
2018-04-22T01:07:50.425Z,6.93
2018-04-22T01:08:53.091Z,7.13
2018-04-22T01:09:54.649Z,6.57
2018-04-22T01:10:55.972Z,7.00
2018-04-22T01:11:58.421Z,6.63
2018-04-22T01:13:00.503Z,6.67
2018-04-22T01:14:02.219Z,6.40
2018-04-22T01:15:04.002Z,6.93
2018-04-22T01:16:05.401Z,7.13
2018-04-22T01:17:07.100Z,7.00
2018-04-22T01:18:09.189Z,6.90
2018-04-22T01:19:11.253Z,6.90
2018-04-22T01:20:14.114Z,6.70
2018-04-22T01:21:16.184Z,7.00
2018-04-22T01:22:17.894Z,6.53
2018-04-22T01:23:19.993Z,6.20
2018-04-22T01:24:21.686Z,6.90
2018-04-22T01:25:23.479Z,7.03
2018-04-22T01:26:25.548Z,7.30
2018-04-22T01:27:27.621Z,6.87
2018-04-22T01:28:29.330Z,6.77
2018-04-22T01:29:31.061Z,7.00
2018-04-22T01:30:32.629Z,7.17
2018-04-22T01:31:34.705Z,6.10
2018-04-22T01:32:37.251Z,6.60
2018-04-22T01:33:38.937Z,6.40
2018-04-22T01:34:41.737Z,6.87
2018-04-22T01:35:43.312Z,7.10
2018-04-22T01:36:45.387Z,7.33
2018-04-22T01:37:47.108Z,6.43
2018-04-22T01:38:49.956Z,6.40
2018-04-22T01:39:52.012Z,6.67
2018-04-22T01:40:53.650Z,6.77
2018-04-22T01:41:54.988Z,6.80
2018-04-22T01:42:56.325Z,7.40
2018-04-22T01:43:57.650Z,6.97
2018-04-22T01:44:58.990Z,7.20
2018-04-22T01:46:00.587Z,7.13
2018-04-22T01:47:02.289Z,7.07
2018-04-22T01:48:03.999Z,7.33
2018-04-22T01:49:05.334Z,7.27
2018-04-22T01:50:08.378Z,6.50
2018-04-22T01:51:10.709Z,7.10
2018-04-22T01:52:12.441Z,7.57
2018-04-22T01:53:14.869Z,7.00
2018-04-22T01:54:16.585Z,6.87
2018-04-22T01:55:18.280Z,6.70
2018-04-22T01:56:20.636Z,7.10
2018-04-22T01:57:22.324Z,7.20
2018-04-22T01:58:23.659Z,6.90
2018-04-22T01:59:24.988Z,7.07
2018-04-22T02:00:26.312Z,6.90
2018-04-22T02:01:27.932Z,6.20
2018-04-22T02:02:29.617Z,6.73
2018-04-22T02:03:31.320Z,6.30
2018-04-22T02:04:34.142Z,6.60
2018-04-22T02:05:36.011Z,6.10
2018-04-22T02:06:38.009Z,5.93
2018-04-22T02:07:40.066Z,6.63
2018-04-22T02:08:41.777Z,7.37
2018-04-22T02:09:43.113Z,6.27
2018-04-22T02:10:44.817Z,6.77
2018-04-22T02:11:46.538Z,6.37
2018-04-22T02:12:47.873Z,6.57
2018-04-22T02:13:49.181Z,6.87
2018-04-22T02:14:51.261Z,6.20
2018-04-22T02:15:53.331Z,6.70
2018-04-22T02:16:55.429Z,6.83
2018-04-22T02:17:57.141Z,7.20
2018-04-22T02:18:59.197Z,6.77
2018-04-22T02:20:01.277Z,7.40
2018-04-22T02:21:02.968Z,7.30
2018-04-22T02:22:05.057Z,7.30
2018-04-22T02:23:07.139Z,7.50
2018-04-22T02:24:08.459Z,6.77
2018-04-22T02:25:09.808Z,7.10
2018-04-22T02:26:11.869Z,6.80
2018-04-22T02:27:13.972Z,7.30
2018-04-22T02:28:15.304Z,6.77
2018-04-22T02:29:17.379Z,6.60
2018-04-22T02:30:19.079Z,6.83
2018-04-22T02:31:20.412Z,7.07
2018-04-22T02:32:22.420Z,7.03
2018-04-22T02:33:24.502Z,7.63
2018-04-22T02:34:26.590Z,7.00
2018-04-22T02:35:27.911Z,7.40
2018-04-22T02:36:29.229Z,7.07
2018-04-22T02:37:30.980Z,7.70
2018-04-22T02:38:32.294Z,7.20
2018-04-22T02:39:34.382Z,6.33
2018-04-22T02:40:36.101Z,6.93
2018-04-22T02:41:38.166Z,7.17
2018-04-22T02:42:40.301Z,7.40
2018-04-22T02:43:42.013Z,7.00
2018-04-22T02:44:43.344Z,6.97
2018-04-22T02:45:45.429Z,7.13
2018-04-22T02:46:47.488Z,6.93
2018-04-22T02:47:48.856Z,7.10
2018-04-22T02:48:50.919Z,6.63
2018-04-22T02:49:52.988Z,6.90
2018-04-22T02:50:55.056Z,7.50
2018-04-22T02:51:57.139Z,7.40
2018-04-22T02:52:58.485Z,7.77
2018-04-22T02:53:59.811Z,7.77
2018-04-22T02:55:01.522Z,6.73
2018-04-22T02:56:03.229Z,7.03
2018-04-22T02:57:04.922Z,6.47
2018-04-22T02:58:07.223Z,7.00
2018-04-22T02:59:08.549Z,6.37
2018-04-22T03:00:09.869Z,6.97
2018-04-22T03:01:11.942Z,6.87
2018-04-22T03:02:13.633Z,6.67
2018-04-22T03:03:15.356Z,6.87
2018-04-22T03:04:17.081Z,6.60
2018-04-22T03:05:19.161Z,6.73
2018-04-22T03:06:20.694Z,6.67
2018-04-22T03:07:22.023Z,6.70
2018-04-22T03:08:23.379Z,6.60
2018-04-22T03:09:25.842Z,7.10
2018-04-22T03:10:27.545Z,7.47
2018-04-22T03:11:29.249Z,7.30
2018-04-22T03:12:30.600Z,7.70
2018-04-22T03:13:32.657Z,6.60
2018-04-22T03:14:34.353Z,7.50
2018-04-22T03:15:35.680Z,7.10
2018-04-22T03:16:38.114Z,7.50
2018-04-22T03:17:39.848Z,7.50
2018-04-22T03:18:41.953Z,7.47
2018-04-22T03:19:44.397Z,7.07
2018-04-22T03:20:45.775Z,6.70
2018-04-22T03:21:47.217Z,6.97
2018-04-22T03:22:48.936Z,7.27
2018-04-22T03:23:50.648Z,6.63
2018-04-22T03:24:52.716Z,6.70
2018-04-22T03:25:54.054Z,6.30
2018-04-22T03:26:55.770Z,7.07
2018-04-22T03:27:57.458Z,6.90
2018-04-22T03:28:58.819Z,6.50
2018-04-22T03:30:00.907Z,6.73
2018-04-22T03:31:02.236Z,6.90
2018-04-22T03:32:03.565Z,6.27
2018-04-22T03:33:04.907Z,7.60
2018-04-22T03:34:07.308Z,6.60
2018-04-22T03:35:09.034Z,6.70
2018-04-22T03:36:10.378Z,6.73
2018-04-22T03:37:12.097Z,7.00
2018-04-22T03:38:13.456Z,6.67
2018-04-22T03:39:15.580Z,6.63
2018-04-22T03:40:17.660Z,7.00
2018-04-22T03:41:19.028Z,7.20
2018-04-22T03:42:21.117Z,6.40
2018-04-22T03:43:23.231Z,6.73
2018-04-22T03:44:25.633Z,6.50
2018-04-22T03:45:27.006Z,6.77
2018-04-22T03:46:29.141Z,7.13
2018-04-22T03:47:31.267Z,6.87
2018-04-22T03:48:33.379Z,7.00
2018-04-22T03:49:35.160Z,7.00
2018-04-22T03:50:37.298Z,7.10
2018-04-22T03:51:39.076Z,7.30
2018-04-22T03:52:41.215Z,7.30
2018-04-22T03:53:42.622Z,6.60
2018-04-22T03:54:44.262Z,6.73
2018-04-22T03:55:45.664Z,6.87
2018-04-22T03:56:47.071Z,6.60
2018-04-22T03:57:48.482Z,7.33
2018-04-22T03:58:50.281Z,7.50
2018-04-22T03:59:52.437Z,6.77
2018-04-22T04:00:54.586Z,6.90
2018-04-22T04:01:56.734Z,6.50
2018-04-22T04:02:58.891Z,6.57
2018-04-22T04:04:00.797Z,7.13
2018-04-22T04:05:02.346Z,6.80
2018-04-22T04:06:03.759Z,7.13
2018-04-22T04:07:05.508Z,7.37
2018-04-22T04:08:07.316Z,7.17
2018-04-22T04:09:08.744Z,7.37
2018-04-22T04:10:10.564Z,7.70
2018-04-22T04:11:12.706Z,7.40
2018-04-22T04:12:14.832Z,7.13
2018-04-22T04:13:17.734Z,7.53
2018-04-22T04:14:19.895Z,7.50
2018-04-22T04:15:22.245Z,9.03
2018-04-22T04:16:24.416Z,7.80
2018-04-22T04:17:26.217Z,7.77
2018-04-22T04:19:03.628Z,7.10
2018-04-22T04:20:24.082Z,8.10
2018-04-22T04:21:44.517Z,7.67
2018-04-22T04:22:46.733Z,7.57
2018-04-22T04:26:38.627Z,7.23
2018-04-22T04:27:43.737Z,7.30
2018-04-22T04:28:45.490Z,7.77
2018-04-22T04:29:47.269Z,7.47
2018-04-22T04:30:48.725Z,7.47
2018-04-22T04:31:50.138Z,7.33
2018-04-22T04:32:52.299Z,7.03
2018-04-22T04:33:54.874Z,7.73
2018-04-22T04:34:56.663Z,6.90
2018-04-22T04:35:58.147Z,7.03
2018-04-22T04:37:00.938Z,7.67
2018-04-22T04:38:02.849Z,7.40
2018-04-22T04:39:05.007Z,7.87
2018-04-22T04:40:07.172Z,8.50
2018-04-22T04:41:08.621Z,8.03
2018-04-22T04:42:10.789Z,9.77
2018-04-22T04:43:12.572Z,10.10
2018-04-22T04:44:14.006Z,8.27
2018-04-22T04:45:16.167Z,7.73
2018-04-22T04:46:17.597Z,8.03
2018-04-22T04:47:19.015Z,7.77
2018-04-22T04:48:20.501Z,8.43
2018-04-22T04:49:22.349Z,7.93
2018-04-22T04:50:24.601Z,7.83
2018-04-22T04:51:26.945Z,8.33
2018-04-22T04:52:28.880Z,7.00
2018-04-22T04:53:31.124Z,7.73
2018-04-22T04:54:33.785Z,7.10
2018-04-22T04:55:36.029Z,7.57
2018-04-22T04:56:37.909Z,7.57
2018-04-22T04:57:39.796Z,7.33
2018-04-22T04:58:41.293Z,7.13
2018-04-22T04:59:43.658Z,8.13
2018-04-22T05:00:45.508Z,8.20
2018-04-22T05:01:47.396Z,6.97
2018-04-22T05:02:48.932Z,6.60
2018-04-22T05:03:50.438Z,7.70
2018-04-22T05:04:53.043Z,7.27
2018-04-22T05:05:54.954Z,7.90
2018-04-22T05:06:57.261Z,7.63
2018-04-22T05:07:59.317Z,7.80
2018-04-22T05:09:00.831Z,7.73
2018-04-22T05:10:03.082Z,7.70
2018-04-22T05:11:05.384Z,7.60
2018-04-22T05:12:06.897Z,7.67
2018-04-22T05:13:08.400Z,7.13
2018-04-22T05:14:09.892Z,7.80
2018-04-22T05:15:11.396Z,7.33
2018-04-22T05:16:13.305Z,7.53
2018-04-22T05:17:15.543Z,8.10
2018-04-22T05:18:17.425Z,7.23
2018-04-22T05:19:19.299Z,7.50
2018-04-22T05:20:20.789Z,6.70
2018-04-22T05:21:22.323Z,7.80
2018-04-22T05:22:23.841Z,7.47
2018-04-22T05:23:25.760Z,7.37
2018-04-22T05:24:27.642Z,6.93
2018-04-22T05:25:29.532Z,6.60
2018-04-22T05:26:31.158Z,7.37
2018-04-22T05:27:33.452Z,7.10
2018-04-22T05:28:35.302Z,7.37
2018-04-22T05:29:37.551Z,7.80
2018-04-22T05:30:40.202Z,6.53
2018-04-22T05:31:42.081Z,6.70
2018-04-22T05:32:44.312Z,6.20
2018-04-22T05:33:46.410Z,6.73
2018-04-22T05:34:48.290Z,5.87
2018-04-22T05:35:51.260Z,6.67
2018-04-22T05:36:52.769Z,6.30
2018-04-22T05:37:54.260Z,5.97
2018-04-22T05:38:56.782Z,6.23
2018-04-22T05:39:59.404Z,6.60
2018-04-22T05:41:01.657Z,6.17
2018-04-22T05:42:03.519Z,5.97
2018-04-22T05:43:06.504Z,6.57
2018-04-22T05:44:08.016Z,5.97
2018-04-22T05:45:09.538Z,5.83
2018-04-22T05:46:11.398Z,6.03
2018-04-22T05:47:13.276Z,6.20
2018-04-22T05:48:15.524Z,5.90
2018-04-22T05:49:17.234Z,6.17
2018-04-22T05:50:19.478Z,6.00
2018-04-22T05:51:21.040Z,6.37
2018-04-22T05:52:22.575Z,6.17
2018-04-22T05:53:24.079Z,6.20
2018-04-22T05:54:26.597Z,6.93
2018-04-22T05:55:28.462Z,6.97
2018-04-22T05:56:30.706Z,6.57
2018-04-22T05:57:32.217Z,7.37
2018-04-22T05:58:33.744Z,6.73
2018-04-22T05:59:36.673Z,6.90
2018-04-22T06:00:38.536Z,6.67
2018-04-22T06:01:41.535Z,6.37
2018-04-22T06:02:44.136Z,5.97
2018-04-22T06:03:46.063Z,6.53
2018-04-22T06:04:48.486Z,6.53
2018-04-22T06:05:50.332Z,6.10
2018-04-22T06:06:52.277Z,5.83
2018-04-22T06:07:53.806Z,6.60
2018-04-22T06:08:56.092Z,6.00
2018-04-22T06:09:58.142Z,5.47
2018-04-22T06:11:00.085Z,5.90
2018-04-22T06:12:02.317Z,5.93
2018-04-22T06:13:03.886Z,6.17
2018-04-22T06:14:06.158Z,6.20
2018-04-22T06:15:08.302Z,6.27
2018-04-22T06:16:09.846Z,6.23
2018-04-22T06:17:12.092Z,5.80
2018-04-22T06:18:14.319Z,6.00
2018-04-22T06:19:16.198Z,6.60
2018-04-22T06:20:18.685Z,6.47
2018-04-22T06:21:20.176Z,6.20
2018-04-22T06:22:22.788Z,6.40
2018-04-22T06:23:25.394Z,5.63
2018-04-22T06:24:28.022Z,6.43
2018-04-22T06:25:30.320Z,5.93
2018-04-22T06:26:33.574Z,5.50
2018-04-22T06:27:35.482Z,6.10
2018-04-22T06:28:37.712Z,6.30
2018-04-22T06:29:39.616Z,5.30
2018-04-22T06:30:42.226Z,5.77
2018-04-22T06:31:44.108Z,5.63
2018-04-22T06:32:46.052Z,6.30
2018-04-22T06:33:47.506Z,6.20
2018-04-22T06:34:50.106Z,5.80
2018-04-22T06:35:52.735Z,5.97
2018-04-22T06:36:54.730Z,6.30
2018-04-22T06:37:57.954Z,5.73
2018-04-22T06:39:01.169Z,5.53
2018-04-22T06:40:03.823Z,6.00
2018-04-22T06:41:07.023Z,5.43
2018-04-22T06:42:10.211Z,5.47
2018-04-22T06:43:13.437Z,5.67
2018-04-22T06:44:16.612Z,5.33
2018-04-22T06:46:29.539Z,5.60
2018-04-22T06:47:32.819Z,5.50
2018-04-22T06:48:36.008Z,5.83
2018-04-22T06:49:39.183Z,5.93
2018-04-22T06:50:42.388Z,5.73
2018-04-22T06:51:45.618Z,5.10
2018-04-22T06:52:47.851Z,5.27
2018-04-22T06:53:50.845Z,6.20
2018-04-22T06:54:54.018Z,5.17
2018-04-22T06:55:57.206Z,6.00
2018-04-22T06:57:00.454Z,5.47
2018-04-22T06:58:03.750Z,5.77
2018-04-22T06:59:06.960Z,5.53
2018-04-22T07:00:08.504Z,6.03
2018-04-22T07:01:11.735Z,5.60
2018-04-22T07:02:14.980Z,6.00
2018-04-22T07:03:18.180Z,5.40
2018-04-22T07:04:21.407Z,5.90
2018-04-22T07:05:24.694Z,5.70
2018-04-22T07:06:27.920Z,5.47
2018-04-22T07:07:31.228Z,5.87
2018-04-22T07:08:34.470Z,6.00
2018-04-22T07:09:37.728Z,5.30
2018-04-22T07:10:40.949Z,5.50
2018-04-22T07:11:44.191Z,6.40
2018-04-22T07:12:47.416Z,5.73
2018-04-22T07:13:48.958Z,5.60
2018-04-22T07:14:52.198Z,5.67
2018-04-22T07:15:55.501Z,5.67
2018-04-22T07:16:58.730Z,5.57
2018-04-22T07:18:01.928Z,5.97
2018-04-22T07:19:05.171Z,5.67
2018-04-22T07:20:08.375Z,5.70
2018-04-22T07:21:11.596Z,5.87
2018-04-22T07:22:14.802Z,5.10
2018-04-22T07:23:18.008Z,5.77
2018-04-22T07:24:21.237Z,5.77
2018-04-22T07:25:22.766Z,6.17
2018-04-22T07:26:25.996Z,5.87
2018-04-22T07:27:29.246Z,6.10
2018-04-22T07:29:42.247Z,5.30
2018-04-22T07:30:45.468Z,6.00
2018-04-22T07:31:48.693Z,5.33
2018-04-22T07:32:51.940Z,6.03
2018-04-22T07:33:55.259Z,6.37
2018-04-22T07:34:58.471Z,6.00
2018-04-22T07:36:01.692Z,6.00
2018-04-22T07:37:04.951Z,5.53
2018-04-22T07:38:08.190Z,5.57
2018-04-22T07:39:11.388Z,5.80
2018-04-22T07:40:14.584Z,6.20
2018-04-22T07:41:17.764Z,5.33
2018-04-22T07:42:21.018Z,6.20
2018-04-22T07:43:24.219Z,6.47
2018-04-22T07:44:27.527Z,5.77
2018-04-22T07:45:30.722Z,5.87
2018-04-22T07:46:33.898Z,5.67
2018-04-22T07:47:37.090Z,5.90
2018-04-22T07:48:40.294Z,5.37
2018-04-22T07:49:43.500Z,5.63
2018-04-22T07:50:46.605Z,5.60
2018-04-22T07:51:49.712Z,5.93
2018-04-22T07:52:52.829Z,5.50
2018-04-22T07:53:54.992Z,5.80
2018-04-22T07:54:58.127Z,5.83
2018-04-22T07:56:01.234Z,5.97
2018-04-22T07:57:04.351Z,5.70
2018-04-22T07:58:07.492Z,5.50
2018-04-22T07:59:10.599Z,5.60
2018-04-22T08:00:12.053Z,5.57
2018-04-22T08:01:15.169Z,5.60
2018-04-22T08:02:16.566Z,5.63
2018-04-22T08:03:19.688Z,5.10
2018-04-22T08:04:22.799Z,6.43
2018-04-22T08:05:25.964Z,5.87
2018-04-22T08:06:29.083Z,5.17
2018-04-22T08:07:32.213Z,6.20
2018-04-22T08:08:35.319Z,6.40
2018-04-22T08:09:38.534Z,6.53
2018-04-22T08:10:39.971Z,6.57
2018-04-22T08:11:43.062Z,6.70
2018-04-22T08:12:46.188Z,6.27
2018-04-22T08:13:49.278Z,6.47
2018-04-22T08:14:52.404Z,6.33
2018-04-22T08:15:54.933Z,6.83
2018-04-22T08:16:58.040Z,5.90
2018-04-22T08:18:01.142Z,5.83
2018-04-22T08:19:04.257Z,5.90
2018-04-22T08:20:07.390Z,5.57
2018-04-22T08:21:11.106Z,5.87
2018-04-22T08:22:12.513Z,5.20
2018-04-22T08:23:15.621Z,5.77
2018-04-22T08:24:18.724Z,5.73
2018-04-22T08:25:21.852Z,5.97
2018-04-22T08:26:25.020Z,6.10
2018-04-22T08:27:28.117Z,6.27
2018-04-22T08:28:29.576Z,5.27
2018-04-22T08:29:32.649Z,5.60
2018-04-22T08:30:34.077Z,5.77
2018-04-22T08:31:38.550Z,6.67
2018-04-22T08:32:41.676Z,5.80
2018-04-22T08:33:44.802Z,5.27
2018-04-22T08:34:47.946Z,4.80
2018-04-22T08:35:51.035Z,6.17
2018-04-22T08:36:54.183Z,5.43
2018-04-22T08:37:57.365Z,5.67
2018-04-22T08:39:00.576Z,5.80
2018-04-22T08:40:02.053Z,5.53
2018-04-22T08:41:05.242Z,5.83
2018-04-22T08:42:08.222Z,5.83
2018-04-22T08:43:11.399Z,5.63
2018-04-22T08:44:14.571Z,5.50
2018-04-22T08:45:17.757Z,6.17
2018-04-22T08:46:20.953Z,6.30
2018-04-22T08:48:32.221Z,5.87
2018-04-22T08:49:35.396Z,6.17
2018-04-22T08:50:38.576Z,6.20
2018-04-22T08:51:41.735Z,5.90
2018-04-22T08:52:44.956Z,5.83
2018-04-22T08:53:48.124Z,5.47
2018-04-22T08:54:51.297Z,6.50
2018-04-22T08:55:54.469Z,5.97
2018-04-22T08:56:57.670Z,5.77
2018-04-22T08:58:00.864Z,5.60
2018-04-22T08:59:03.989Z,5.40
2018-04-22T09:00:07.124Z,5.97
2018-04-22T09:01:10.245Z,5.80
2018-04-22T09:02:13.163Z,6.07
2018-04-22T09:03:16.298Z,6.00
2018-04-22T09:04:19.197Z,6.00
2018-04-22T09:05:20.666Z,5.93
2018-04-22T09:06:23.971Z,5.90
2018-04-22T09:07:27.266Z,5.70
2018-04-22T09:08:28.752Z,6.10
2018-04-22T09:09:31.939Z,5.30
2018-04-22T09:10:35.132Z,5.80
2018-04-22T09:11:38.320Z,5.93
2018-04-22T09:12:41.506Z,5.53
2018-04-22T09:13:44.754Z,5.87
2018-04-22T09:14:47.932Z,6.20
2018-04-22T09:15:51.130Z,5.60
2018-04-22T09:16:52.604Z,6.30
2018-04-22T09:17:55.784Z,5.90
2018-04-22T09:18:58.983Z,5.80
2018-04-22T09:20:02.162Z,5.93
2018-04-22T09:21:05.341Z,7.33
2018-04-22T09:22:08.534Z,6.20
2018-04-22T09:23:11.721Z,6.20
2018-04-22T09:24:14.962Z,6.60
2018-04-22T09:25:18.154Z,6.23
2018-04-22T09:26:21.322Z,6.63
2018-04-22T09:27:24.521Z,6.20
2018-04-22T09:28:27.684Z,6.50
2018-04-22T09:29:30.878Z,6.17
2018-04-22T09:30:32.405Z,5.93
2018-04-22T09:31:35.573Z,6.80
2018-04-22T09:32:38.748Z,5.90
2018-04-22T09:33:41.909Z,6.90
2018-04-22T09:34:43.449Z,6.67
2018-04-22T09:35:46.581Z,7.50
2018-04-22T09:36:49.699Z,6.87
2018-04-22T09:37:52.917Z,6.13
2018-04-22T09:38:56.027Z,6.47
2018-04-22T09:39:59.192Z,6.57
2018-04-22T09:41:02.305Z,6.73
2018-04-22T09:42:03.740Z,6.60
2018-04-22T09:43:05.208Z,5.80
2018-04-22T09:44:08.298Z,6.60
2018-04-22T09:45:11.565Z,6.40
2018-04-22T09:46:14.739Z,7.23
2018-04-22T09:47:17.927Z,7.60
2018-04-22T09:48:23.221Z,8.00
2018-04-22T09:49:26.418Z,7.90
2018-04-22T09:50:28.466Z,10.53
2018-04-22T09:51:31.626Z,14.13
2018-04-22T09:52:34.795Z,11.37
2018-04-22T09:53:38.002Z,11.13
2018-04-22T09:54:40.230Z,11.40
2018-04-22T09:55:43.268Z,10.37
2018-04-22T09:56:46.396Z,9.87
2018-04-22T09:57:49.620Z,10.20
2018-04-22T09:58:52.832Z,9.10
2018-04-22T09:59:56.034Z,9.17
2018-04-22T10:01:00.044Z,9.40
2018-04-22T10:02:03.220Z,9.37
2018-04-22T10:03:06.405Z,8.17
2018-04-22T10:04:09.622Z,8.37
2018-04-22T10:05:12.829Z,9.57
2018-04-22T10:06:14.341Z,8.77
2018-04-22T10:07:17.525Z,8.10
2018-04-22T10:08:20.745Z,7.87
2018-04-22T10:09:22.234Z,8.77
2018-04-22T10:10:25.216Z,9.37
2018-04-22T10:11:28.483Z,8.93
2018-04-22T10:12:31.647Z,8.17
2018-04-22T10:13:34.833Z,8.43
2018-04-22T10:14:38.015Z,8.40
2018-04-22T10:15:41.165Z,7.70
2018-04-22T10:16:44.380Z,8.17
2018-04-22T10:17:47.552Z,8.37
2018-04-22T10:18:49.394Z,7.67
2018-04-22T10:19:52.562Z,7.90
2018-04-22T10:20:55.749Z,8.07
2018-04-22T10:21:58.957Z,8.40
2018-04-22T10:23:00.410Z,8.53
2018-04-22T10:24:03.591Z,8.30
2018-04-22T10:25:06.775Z,8.03
2018-04-22T10:26:09.988Z,7.60
2018-04-22T10:27:13.188Z,7.60
2018-04-22T10:28:16.376Z,8.57
2018-04-22T10:29:19.544Z,7.47
2018-04-22T10:30:22.699Z,15.90
2018-04-22T10:31:25.874Z,16.10
2018-04-22T10:32:29.068Z,9.53
2018-04-22T10:33:32.250Z,9.33
2018-04-22T10:34:34.506Z,10.73
2018-04-22T10:35:37.671Z,8.73
2018-04-22T10:36:40.841Z,8.57
2018-04-22T10:37:44.075Z,9.23
2018-04-22T10:38:47.246Z,7.70
2018-04-22T10:39:49.514Z,11.60
2018-04-22T10:40:52.708Z,7.63
2018-04-22T10:41:54.255Z,8.30
2018-04-22T10:42:57.469Z,7.20
2018-04-22T10:44:00.649Z,19.47
2018-04-22T10:45:02.154Z,9.23
2018-04-22T10:46:03.644Z,7.17
2018-04-22T10:47:06.803Z,6.93
2018-04-22T10:48:08.360Z,6.40
2018-04-22T10:49:11.698Z,6.33
2018-04-22T10:50:15.056Z,6.40
2018-04-22T10:51:18.263Z,6.17
2018-04-22T10:52:21.536Z,6.00
2018-04-22T10:53:24.870Z,5.90
2018-04-22T10:54:28.166Z,6.43
2018-04-22T10:55:31.449Z,6.33
2018-04-22T10:56:34.655Z,5.67
2018-04-22T10:57:37.911Z,6.37
2018-04-22T10:58:41.303Z,6.33
2018-04-22T10:59:44.595Z,5.80
2018-04-22T11:00:47.625Z,6.13
2018-04-22T11:01:50.834Z,6.10
2018-04-22T11:02:54.162Z,6.30
2018-04-22T11:03:57.496Z,5.67
2018-04-22T11:05:00.943Z,6.00
2018-04-22T11:06:03.797Z,6.07
2018-04-22T11:07:07.055Z,7.90
2018-04-22T11:08:09.741Z,6.47
2018-04-22T11:09:12.940Z,6.37
2018-04-22T11:10:16.137Z,6.63
2018-04-22T11:11:19.327Z,5.97
2018-04-22T11:12:22.565Z,5.80
2018-04-22T11:13:25.748Z,6.20
2018-04-22T11:14:28.927Z,5.70
2018-04-22T11:15:32.106Z,5.70
2018-04-22T11:16:35.311Z,6.10
2018-04-22T11:17:38.479Z,5.70
2018-04-22T11:18:41.650Z,5.23
2018-04-22T11:19:44.647Z,5.37
2018-04-22T11:20:47.821Z,4.80
2018-04-22T11:21:50.973Z,5.33
2018-04-22T11:22:54.157Z,5.30
2018-04-22T11:23:57.333Z,5.37
2018-04-22T11:25:00.536Z,5.40
2018-04-22T11:26:05.142Z,5.53
2018-04-22T11:27:08.350Z,6.10
2018-04-22T11:28:09.840Z,5.53
2018-04-22T11:29:13.026Z,5.57
2018-04-22T11:30:16.262Z,5.60
2018-04-22T11:31:19.436Z,5.90
2018-04-22T11:32:22.629Z,5.40
2018-04-22T11:33:25.823Z,5.20
2018-04-22T11:34:28.982Z,5.83
2018-04-22T11:35:30.505Z,5.80
2018-04-22T11:36:33.700Z,5.60
2018-04-22T11:37:36.865Z,6.00
2018-04-22T11:38:40.037Z,5.70
2018-04-22T11:39:43.244Z,5.33
2018-04-22T11:40:46.432Z,5.43
2018-04-22T11:41:49.623Z,6.00
2018-04-22T11:42:52.821Z,5.50
2018-04-22T11:43:56.030Z,5.93
2018-04-22T11:44:59.026Z,5.73
2018-04-22T11:46:01.066Z,5.60
2018-04-22T11:47:04.239Z,6.07
2018-04-22T11:48:05.709Z,5.97
2018-04-22T11:49:08.905Z,5.77
2018-04-22T11:50:10.398Z,5.67
2018-04-22T11:51:11.937Z,6.10
2018-04-22T11:52:15.108Z,6.53
2018-04-22T11:53:18.290Z,7.77
2018-04-22T11:54:20.926Z,7.30
2018-04-22T11:55:24.065Z,6.97
2018-04-22T11:56:27.196Z,5.90
2018-04-22T11:57:28.614Z,6.33
2018-04-22T11:58:31.724Z,6.20
2018-04-22T11:59:34.858Z,6.20
2018-04-22T12:00:38.026Z,6.10
2018-04-22T12:01:41.158Z,6.17
2018-04-22T12:02:44.279Z,5.97
2018-04-22T12:03:47.470Z,6.50
2018-04-22T12:04:50.653Z,6.43
2018-04-22T12:05:53.914Z,6.47
2018-04-22T12:06:57.104Z,5.80
2018-04-22T12:07:58.982Z,6.37
2018-04-22T12:09:02.221Z,7.07
2018-04-22T12:10:05.446Z,6.20
2018-04-22T12:11:06.939Z,6.30
2018-04-22T12:12:09.916Z,5.93
2018-04-22T12:13:13.146Z,5.07
2018-04-22T12:14:16.344Z,5.97
2018-04-22T12:15:19.567Z,5.50
2018-04-22T12:16:22.769Z,6.13
2018-04-22T12:17:26.009Z,7.60
2018-04-22T12:18:29.179Z,7.20
2018-04-22T12:19:30.702Z,5.90
2018-04-22T12:20:33.973Z,6.27
2018-04-22T12:21:37.148Z,5.90
2018-04-22T12:22:40.354Z,5.80
2018-04-22T12:23:43.573Z,6.00
2018-04-22T12:24:46.720Z,5.83
2018-04-22T12:25:49.864Z,5.30
2018-04-22T12:26:52.993Z,5.93
2018-04-22T12:27:56.170Z,5.83
2018-04-22T12:28:59.292Z,5.57
2018-04-22T12:30:02.493Z,7.05
2018-04-22T12:31:05.648Z,6.70
2018-04-22T12:32:08.764Z,5.70
2018-04-22T12:33:11.904Z,5.37
2018-04-22T12:34:15.023Z,5.63
2018-04-22T12:35:18.150Z,6.30
2018-04-22T12:36:21.269Z,5.47
2018-04-22T12:37:24.390Z,5.10
2018-04-22T12:38:27.530Z,5.67
2018-04-22T12:39:30.643Z,6.30
2018-04-22T12:40:34.977Z,5.57
2018-04-22T12:41:38.081Z,5.50
2018-04-22T12:42:39.556Z,5.60
2018-04-22T12:43:42.701Z,5.40
2018-04-22T12:44:44.847Z,5.53
2018-04-22T12:45:47.944Z,5.27
2018-04-22T12:46:51.154Z,4.80
2018-04-22T12:47:54.367Z,5.53
2018-04-22T12:48:57.560Z,5.30
2018-04-22T12:50:00.733Z,5.20
2018-04-22T12:51:03.950Z,5.00
2018-04-22T12:52:05.460Z,5.03
2018-04-22T12:53:06.978Z,6.07
2018-04-22T12:54:10.194Z,5.83
2018-04-22T12:55:13.358Z,5.43
2018-04-22T12:56:16.572Z,4.73
2018-04-22T12:57:19.765Z,5.30
2018-04-22T12:58:22.942Z,5.30
2018-04-22T12:59:24.452Z,5.23
2018-04-22T13:00:27.085Z,5.90
2018-04-22T13:01:30.271Z,5.12
2018-04-22T13:02:33.454Z,4.93
2018-04-22T13:03:34.928Z,5.27
2018-04-22T13:04:38.130Z,5.10
2018-04-22T13:05:41.332Z,5.57
2018-04-22T13:06:44.512Z,5.13
2018-04-22T13:07:47.692Z,5.40
2018-04-22T13:08:50.880Z,5.13
2018-04-22T13:09:52.367Z,5.00
2018-04-22T13:10:55.554Z,4.80
2018-04-22T13:11:58.719Z,5.43
2018-04-22T13:13:01.923Z,5.10
2018-04-22T13:14:03.531Z,4.87
2018-04-22T13:15:06.752Z,4.97
2018-04-22T13:16:09.958Z,5.93
2018-04-22T13:17:13.158Z,4.90
2018-04-22T13:18:16.334Z,4.77
2018-04-22T13:19:17.844Z,5.57
2018-04-22T13:20:21.030Z,5.30
2018-04-22T13:21:24.232Z,5.10
2018-04-22T13:22:27.408Z,5.53
2018-04-22T13:23:29.966Z,5.70
2018-04-22T13:24:32.932Z,5.43
2018-04-22T13:25:36.144Z,5.03
2018-04-22T13:26:39.327Z,5.40
2018-04-22T13:27:40.826Z,4.90
2018-04-22T13:28:44.013Z,5.10
2018-04-22T13:29:47.222Z,5.50
2018-04-22T13:30:50.508Z,4.93
2018-04-22T13:31:53.731Z,4.80
2018-04-22T13:32:56.882Z,5.00
2018-04-22T13:35:08.006Z,5.60
2018-04-22T13:36:11.392Z,5.40
2018-04-22T13:37:13.985Z,4.93
2018-04-22T13:38:17.084Z,4.90
2018-04-22T13:39:20.274Z,5.28
2018-04-22T13:40:23.457Z,5.00
2018-04-22T13:41:26.840Z,4.97
2018-04-22T13:42:29.944Z,4.60
2018-04-22T13:43:33.051Z,4.90
2018-04-22T13:44:36.166Z,5.23
2018-04-22T13:45:39.379Z,5.10
2018-04-22T13:46:42.588Z,5.60
2018-04-22T13:47:45.756Z,4.70
2018-04-22T13:48:48.939Z,4.90
2018-04-22T13:49:52.149Z,5.03
2018-04-22T13:50:55.323Z,4.90
2018-04-22T13:51:57.211Z,5.10
2018-04-22T13:53:00.176Z,4.93
2018-04-22T13:54:03.362Z,4.80
2018-04-22T13:55:04.877Z,4.90
2018-04-22T13:56:08.086Z,5.07
2018-04-22T13:57:11.477Z,4.97
2018-04-22T13:58:14.667Z,4.83
2018-04-22T13:59:17.822Z,5.00
2018-04-22T14:00:21.004Z,4.60